HESN

Aswan International Airport

Aswan, Egypt
METAR HESN 181600Z 08003KT CAVOK 26/05 Q1015 NOSIG
Observed Flight Rules
Dec-18 @ 16:00 UTC (44 minutes ago) Visual Flight Rules
Wind Visibility Clouds
80° at 3 knots 10,000+ meters
  • Clear skies
Temperatures Readings
Current 26°C / 79°F
Dewpoint 5°C / 41°F
Humidity 26%
Altimeter 29.97" Hg
Pressure 1015 hPa
Elevation 194
METAR HESN 181600Z 08003KT CAVOK 26/05 Q1015 NOSIG
Observed Flight Rules
Dec-18 @ 16:00 UTC
(44 minutes ago)
VFR
Wind Visibility
80° at 3 knots 10,000+ meters
Clouds
  • Clear skies
Temperature Dewpoint
26°C / 79°F 5°C / 41°F
Humidity Altimeter Pressure
26% 29.97" Hg 1015 hPa